Time;durP1;ratioP1;P1;durP2;ratioP2;P2;SDS_P1;SDS_P2;PMS_P1;PMS_P2;Temp;Humidity;BMP_temperature;BMP_pressure;BME280_temperature;BME280_humidity;BME280_pressure;Samples;Min_cycle;Max_cycle;Signal;HPM_P1;HPM_P2
2023/12/24 00:02:06;;;;;;;5.70;1.70;;;;;;;11.66;100.00;101070.00;10594709;27;20074;-83
2023/12/24 00:07:29;;;;;;;10.20;4.38;;;;;;;11.69;100.00;101073.56;10595026;27;20047;-84
2023/12/24 00:12:55;;;;;;;9.43;3.60;;;;;;;11.65;100.00;101061.16;10609451;27;20047;-83
2023/12/24 00:18:17;;;;;;;13.32;3.92;;;;;;;11.64;100.00;101063.78;10608946;27;20722;-83
2023/12/24 00:23:39;;;;;;;13.50;5.88;;;;;;;11.68;100.00;101063.88;10608335;27;20092;-84
2023/12/24 00:29:03;;;;;;;24.08;9.40;;;;;;;11.69;100.00;101056.81;10576446;27;20135;-83
2023/12/24 00:34:26;;;;;;;27.63;8.40;;;;;;;11.67;100.00;101054.16;10574725;27;20040;-83
2023/12/24 00:39:48;;;;;;;9.68;4.25;;;;;;;11.72;100.00;101051.59;10607957;27;20075;-83
2023/12/24 00:45:13;;;;;;;9.65;3.30;;;;;;;11.70;100.00;101059.47;10593640;27;20092;-83
2023/12/24 00:50:35;;;;;;;10.63;3.03;;;;;;;11.61;100.00;101054.06;10593283;27;20058;-84
2023/12/24 00:55:59;;;;;;;24.10;8.57;;;;;;;11.56;100.00;101042.50;10606913;27;20130;-85
2023/12/24 01:01:24;;;;;;;13.77;5.18;;;;;;;11.53;100.00;101043.38;10591877;27;20446;-85
2023/12/24 01:06:46;;;;;;;21.00;7.22;;;;;;;11.65;100.00;101063.81;10602982;27;20099;-84
2023/12/24 01:12:08;;;;;;;13.43;4.05;;;;;;;11.69;100.00;101060.34;10591597;27;20054;-84
2023/12/24 01:17:35;;;;;;;39.88;18.00;;;;;;;11.73;100.00;101064.84;10592377;27;20055;-84
2023/12/24 01:22:59;;;;;;;49.45;19.67;;;;;;;11.68;100.00;101066.53;10602680;27;20480;-84
2023/12/24 01:28:23;;;;;;;33.50;16.08;;;;;;;11.69;100.00;101065.63;10582779;27;20130;-84
2023/12/24 01:33:48;;;;;;;49.97;26.25;;;;;;;11.67;100.00;101061.19;10592189;27;20385;-85
2023/12/24 01:39:11;;;;;;;18.95;11.57;;;;;;;11.76;100.00;101061.34;10598967;27;20055;-84
2023/12/24 01:44:34;;;;;;;12.73;8.45;;;;;;;11.80;100.00;101061.44;10590773;27;20091;-83
2023/12/24 01:49:58;;;;;;;26.88;17.45;;;;;;;11.81;100.00;101075.56;10592284;27;20059;-84
2023/12/24 01:55:21;;;;;;;16.60;9.98;;;;;;;11.71;100.00;101066.56;10580381;27;20039;-84
2023/12/24 02:00:44;;;;;;;21.10;12.23;;;;;;;11.72;100.00;101078.03;10571862;27;20049;-84
2023/12/24 02:06:11;;;;;;;15.23;9.10;;;;;;;11.79;100.00;101086.13;10579475;27;20054;-85
2023/12/24 02:11:33;;;;;;;12.90;9.40;;;;;;;11.79;100.00;101069.34;10603715;27;20454;-84
2023/12/24 02:16:59;;;;;;;17.83;5.22;;;;;;;12.00;100.00;101079.38;10584332;27;20047;-84
2023/12/24 02:22:23;;;;;;;12.38;3.83;;;;;;;12.00;100.00;101074.97;10589077;27;20047;-84
2023/12/24 02:27:53;;;;;;;15.73;5.50;;;;;;;11.93;100.00;101086.34;10588023;27;20043;-84
2023/12/24 02:33:18;;;;;;;12.32;4.07;;;;;;;11.84;100.00;101076.50;10579831;27;20074;-84
2023/12/24 02:38:43;;;;;;;60.20;28.27;;;;;;;11.89;100.00;101093.31;10562163;27;20047;-84
2023/12/24 02:44:05;;;;;;;9.27;3.80;;;;;;;11.76;100.00;101094.00;10595588;27;20054;-85
2023/12/24 02:49:28;;;;;;;14.82;6.90;;;;;;;11.68;100.00;101108.84;10600938;28;20134;-82
2023/12/24 02:54:52;;;;;;;13.10;7.53;;;;;;;11.64;100.00;101116.66;10602228;28;20039;-82
2023/12/24 03:00:15;;;;;;;21.08;6.35;;;;;;;11.79;100.00;101101.09;10608267;27;20107;-82
2023/12/24 03:05:38;;;;;;;5.20;1.67;;;;;;;11.57;100.00;101131.53;10610530;27;20047;-83
2023/12/24 03:11:04;;;;;;;9.90;4.95;;;;;;;11.41;100.00;101137.44;10595449;27;20051;-83
2023/12/24 03:16:29;;;;;;;6.10;3.35;;;;;;;11.38;100.00;101132.97;10599812;27;20127;-84
2023/12/24 03:21:52;;;;;;;4.13;2.58;;;;;;;11.14;100.00;101141.34;10596409;27;20051;-84
2023/12/24 03:27:16;;;;;;;10.52;6.18;;;;;;;10.96;100.00;101153.31;10610172;27;20054;-83
2023/12/24 03:32:40;;;;;;;13.45;6.07;;;;;;;10.81;100.00;101161.78;10590333;27;20100;-81
2023/12/24 03:38:03;;;;;;;8.95;4.95;;;;;;;10.61;100.00;101156.09;10570001;27;20047;-83
2023/12/24 03:43:27;;;;;;;10.93;2.40;;;;;;;10.60;100.00;101156.06;10608788;27;20051;-84
2023/12/24 03:48:50;;;;;;;7.25;1.60;;;;;;;11.02;100.00;101166.63;10601800;27;20043;-84
2023/12/24 03:54:12;;;;;;;6.35;2.10;;;;;;;11.06;100.00;101160.53;10595682;27;20096;-84
2023/12/24 03:59:36;;;;;;;10.57;2.90;;;;;;;10.86;100.00;101161.88;10607504;27;20062;-84
2023/12/24 04:04:59;;;;;;;16.63;5.07;;;;;;;10.72;100.00;101172.16;10592688;27;20120;-83
2023/12/24 04:10:22;;;;;;;10.10;3.20;;;;;;;10.72;100.00;101172.16;10573965;27;20046;-83
2023/12/24 04:15:46;;;;;;;8.40;3.60;;;;;;;10.82;100.00;101175.91;10587756;27;20123;-82
2023/12/24 04:21:08;;;;;;;12.48;3.03;;;;;;;10.77;100.00;101178.41;10576108;27;20082;-82
2023/12/24 04:26:31;;;;;;;6.22;1.73;;;;;;;10.96;100.00;101172.66;10606752;27;20058;-82
2023/12/24 04:31:56;;;;;;;12.20;8.30;;;;;;;11.01;100.00;101197.44;10595845;27;20055;-83
2023/12/24 04:37:21;;;;;;;11.13;9.07;;;;;;;10.95;100.00;101212.28;10607241;27;20080;-83
2023/12/24 04:42:45;;;;;;;8.57;4.47;;;;;;;10.82;100.00;101207.59;10594148;27;20038;-83
2023/12/24 04:48:10;;;;;;;6.68;2.63;;;;;;;11.01;100.00;101215.94;10594295;27;20556;-83
2023/12/24 04:53:33;;;;;;;6.32;2.38;;;;;;;11.20;100.00;101217.19;10603053;27;20055;-83
2023/12/24 04:58:57;;;;;;;17.85;14.27;;;;;;;11.06;100.00;101227.47;10578795;27;20165;-82
2023/12/24 05:04:26;;;;;;;10.05;7.97;;;;;;;10.86;100.00;101225.25;10594984;27;20405;-83
2023/12/24 05:09:50;;;;;;;10.60;4.22;;;;;;;10.72;100.00;101211.75;10605842;27;20051;-82
2023/12/24 05:15:12;;;;;;;10.20;1.88;;;;;;;10.65;100.00;101202.81;10577369;27;20142;-84
2023/12/24 05:20:36;;;;;;;27.77;18.58;;;;;;;10.84;100.00;101198.81;10563150;27;20044;-83
2023/12/24 05:25:59;;;;;;;25.63;16.42;;;;;;;10.97;100.00;101199.97;10590956;27;20061;-83
2023/12/24 05:31:22;;;;;;;16.80;6.78;;;;;;;10.97;100.00;101206.13;10590241;27;20096;-81
2023/12/24 05:36:47;;;;;;;38.70;32.28;;;;;;;11.00;100.00;101216.78;10604367;27;20137;-84
2023/12/24 05:42:10;;;;;;;13.77;9.38;;;;;;;11.01;100.00;101228.25;10590477;27;20134;-83
2023/12/24 05:47:33;;;;;;;40.72;22.30;;;;;;;11.07;100.00;101223.97;10580664;27;20035;-83
2023/12/24 05:53:10;;;;;;;30.13;26.98;;;;;;;11.20;100.00;101219.84;10655733;27;20137;-83
2023/12/24 05:58:32;;;;;;;18.70;10.32;;;;;;;11.45;100.00;101226.50;10627193;27;20049;-84
2023/12/24 06:03:55;;;;;;;39.08;25.20;;;;;;;11.60;100.00;101234.72;10640799;27;20039;-82
2023/12/24 06:09:20;;;;;;;127.78;96.18;;;;;;;11.74;100.00;101230.63;10629907;27;20150;-82
2023/12/24 06:14:42;;;;;;;28.70;16.63;;;;;;;11.90;100.00;101242.34;10635421;27;20043;-82
2023/12/24 06:20:06;;;;;;;72.57;48.85;;;;;;;12.18;100.00;101252.56;10634878;27;20051;-82
2023/12/24 06:25:30;;;;;;;55.50;38.85;;;;;;;15.47;100.00;101235.59;10639394;27;20039;-82
2023/12/24 06:30:52;;;;;;;47.28;28.38;;;;;;;18.45;100.00;101225.00;10623565;27;20053;-82
2023/12/24 06:36:15;;;;;;;26.90;17.77;;;;;;;20.59;95.83;101238.25;10638927;27;20043;-81
2023/12/24 06:41:39;;;;;;;39.75;29.73;;;;;;;21.33;82.87;101237.75;10623202;27;20062;-83
2023/12/24 06:47:01;;;;;;;14.00;6.63;;;;;;;20.58;90.29;101247.22;10636536;27;20110;-81
2023/12/24 06:52:24;;;;;;;27.98;18.05;;;;;;;22.19;76.54;101259.97;10627063;27;20051;-81
2023/12/24 06:57:49;;;;;;;32.53;22.63;;;;;;;23.56;64.85;101261.72;10623506;27;20047;-82
2023/12/24 07:03:11;;;;;;;25.88;15.00;;;;;;;24.19;59.71;101277.72;10592103;27;20130;-82
2023/12/24 07:08:35;;;;;;;27.95;13.60;;;;;;;25.24;55.89;101268.69;10598350;27;20073;-83
2023/12/24 07:13:58;;;;;;;23.92;9.50;;;;;;;26.09;52.00;101281.66;10591241;27;20047;-82
2023/12/24 07:19:22;;;;;;;10.52;3.33;;;;;;;25.79;48.47;101293.69;10577440;27;20057;-81
2023/12/24 07:24:46;;;;;;;6.07;1.73;;;;;;;25.60;47.13;101296.19;10593069;27;20076;-83
2023/12/24 07:30:12;;;;;;;13.07;3.35;;;;;;;26.22;47.32;101273.03;10614481;27;20051;-83
2023/12/24 07:35:35;;;;;;;13.88;5.10;;;;;;;26.75;43.95;101293.34;10584321;27;20080;-80
2023/12/24 07:40:57;;;;;;;9.68;4.50;;;;;;;27.58;43.03;101290.59;10591615;27;20039;-80
2023/12/24 07:46:21;;;;;;;9.90;5.28;;;;;;;29.62;39.98;101305.63;10606672;27;20062;-79
2023/12/24 07:51:44;;;;;;;9.18;4.03;;;;;;;30.75;37.96;101309.13;10599002;27;20800;-80
2023/12/24 07:57:06;;;;;;;10.80;3.00;;;;;;;31.59;36.20;101309.41;10606444;27;20138;-80
2023/12/24 08:02:34;;;;;;;5.82;2.28;;;;;;;31.76;35.30;101311.13;10606818;27;20178;-80
2023/12/24 08:07:56;;;;;;;5.67;1.60;;;;;;;31.67;34.98;101329.84;10606926;27;20154;-81
2023/12/24 08:13:19;;;;;;;13.48;4.65;;;;;;;31.87;34.11;101333.16;10587662;27;20075;-81
2023/12/24 08:18:44;;;;;;;9.25;2.40;;;;;;;31.70;33.39;101333.38;10604700;27;20051;-80
2023/12/24 08:24:08;;;;;;;7.50;2.47;;;;;;;31.53;33.21;101323.47;10601320;27;20047;-81
2023/12/24 08:29:31;;;;;;;12.75;5.07;;;;;;;31.61;31.99;101318.44;10602642;27;20055;-82
2023/12/24 08:34:56;;;;;;;156.93;98.05;;;;;;;31.14;32.32;101330.41;10590072;27;20053;-82
2023/12/24 08:40:19;;;;;;;11.32;5.18;;;;;;;31.31;31.89;101323.91;10591968;27;20047;-80
2023/12/24 08:45:41;;;;;;;57.42;46.20;;;;;;;31.52;31.44;101317.13;10618298;27;20050;-83
2023/12/24 08:51:06;;;;;;;6.28;1.65;;;;;;;30.94;30.91;101328.00;10613211;27;20051;-84
2023/12/24 08:56:28;;;;;;;7.55;1.55;;;;;;;30.20;31.37;101329.63;10609255;27;20035;-78
2023/12/24 09:01:51;;;;;;;6.88;2.30;;;;;;;30.47;30.29;101314.41;10611944;27;20065;-83
2023/12/24 09:07:15;;;;;;;7.25;2.08;;;;;;;30.99;30.88;101308.59;10639574;27;20047;-84
2023/12/24 09:12:37;;;;;;;7.25;2.25;;;;;;;32.15;28.95;101316.78;10614666;27;20623;-84
2023/12/24 09:17:59;;;;;;;6.47;2.05;;;;;;;32.61;27.99;101319.19;10610402;27;20038;-82
2023/12/24 09:23:23;;;;;;;8.70;2.63;;;;;;;32.60;27.82;101295.53;10577656;27;20047;-84
2023/12/24 09:28:46;;;;;;;8.40;2.10;;;;;;;33.13;27.04;101300.97;10613890;27;20490;-84
2023/12/24 09:34:08;;;;;;;5.60;2.80;;;;;;;33.83;26.40;101304.19;10620088;27;20050;-88
2023/12/24 09:39:32;;;;;;;6.75;2.10;;;;;;;33.97;26.69;101284.88;10601066;27;20035;-84
2023/12/24 09:44:55;;;;;;;10.23;1.85;;;;;;;34.22;26.37;101272.09;10632377;27;20036;-87
2023/12/24 09:50:18;;;;;;;6.82;1.80;;;;;;;34.70;25.79;101262.88;10593545;27;20134;-86
2023/12/24 09:55:42;;;;;;;6.28;1.77;;;;;;;34.95;25.56;101260.97;10608559;27;20039;-88
2023/12/24 10:01:04;;;;;;;8.90;2.88;;;;;;;34.91;25.15;101256.72;10646059;27;20046;-88
2023/12/24 10:06:27;;;;;;;13.02;4.78;;;;;;;34.67;25.49;101254.84;10601087;27;20571;-82
2023/12/24 10:12:05;;;;;;;8.90;2.33;;;;;;;34.40;25.53;101248.75;10611068;27;20060;-83
2023/12/24 10:17:32;;;;;;;8.13;2.03;;;;;;;34.31;25.80;101235.75;10602818;28;20062;-83
2023/12/24 10:23:07;;;;;;;5.88;2.15;;;;;;;33.83;26.31;101246.63;10620320;27;20051;-81
2023/12/24 10:28:32;;;;;;;10.52;2.67;;;;;;;32.85;27.71;101229.97;10602002;27;20055;-81
2023/12/24 10:34:00;;;;;;;7.05;1.80;;;;;;;32.11;28.44;101227.72;10620521;27;20043;-83
2023/12/24 10:39:25;;;;;;;7.95;1.88;;;;;;;31.77;29.63;101214.56;10635005;27;20375;-78
2023/12/24 10:44:49;;;;;;;10.27;1.90;;;;;;;32.29;29.52;101210.13;10625591;27;20043;-77
2023/12/24 10:50:12;;;;;;;8.52;2.42;;;;;;;31.85;29.69;101215.78;10623642;27;20150;-78
2023/12/24 10:55:37;;;;;;;7.70;2.35;;;;;;;32.06;30.38;101229.88;10642128;27;20046;-78
2023/12/24 11:01:07;;;;;;;9.05;2.20;;;;;;;31.53;30.54;101223.31;10619483;27;20045;-78
2023/12/24 11:06:46;;;;;;;8.43;2.20;;;;;;;31.02;31.73;101213.84;10645388;27;20050;-78
2023/12/24 11:12:09;;;;;;;11.63;2.50;;;;;;;30.85;31.96;101223.03;10633549;27;20495;-79
2023/12/24 11:17:50;;;;;;;7.35;1.67;;;;;;;30.41;32.73;101208.47;10598348;27;20274;-80
2023/12/24 11:23:14;;;;;;;7.65;2.35;;;;;;;29.93;33.17;101206.81;10643145;27;20142;-80
2023/12/24 11:28:37;;;;;;;8.85;3.03;;;;;;;29.78;33.76;101207.66;10625050;27;20047;-80
2023/12/24 11:34:02;;;;;;;9.73;2.47;;;;;;;29.38;33.73;101199.00;10550740;28;20119;-81
2023/12/24 11:39:25;;;;;;;9.43;2.45;;;;;;;29.06;34.79;101205.31;10618048;27;20435;-82
2023/12/24 11:44:48;;;;;;;8.73;2.22;;;;;;;28.53;36.54;101207.16;10599815;27;20039;-82
2023/12/24 11:50:14;;;;;;;9.45;2.15;;;;;;;27.55;38.81;101188.53;10601284;27;20533;-82
2023/12/24 11:55:36;;;;;;;9.05;2.25;;;;;;;26.89;40.00;101204.25;10601712;27;20043;-82
2023/12/24 12:01:00;;;;;;;9.25;2.58;;;;;;;26.47;41.58;101198.84;10607197;27;20043;-82
2023/12/24 12:06:26;;;;;;;9.85;2.25;;;;;;;25.97;44.06;101176.59;10610830;27;20445;-80
2023/12/24 12:11:50;;;;;;;11.48;2.75;;;;;;;25.42;47.30;101180.59;10608832;27;20149;-81
2023/12/24 12:17:12;;;;;;;9.18;2.17;;;;;;;25.37;47.31;101172.69;10643453;27;20147;-79
2023/12/24 12:22:36;;;;;;;11.45;2.22;;;;;;;25.03;50.50;101183.00;10647232;27;20366;-80
2023/12/24 12:27:59;;;;;;;11.48;3.10;;;;;;;24.68;55.21;101175.31;10605498;27;20223;-80
2023/12/24 12:33:22;;;;;;;13.88;2.75;;;;;;;24.18;56.89;101180.59;10609085;27;20262;-80
2023/12/24 12:38:46;;;;;;;15.48;2.65;;;;;;;23.58;59.78;101187.06;10602741;27;20501;-80
2023/12/24 12:44:09;;;;;;;13.70;2.92;;;;;;;23.05;65.57;101189.50;10604411;27;20495;-79
2023/12/24 12:49:31;;;;;;;15.43;2.95;;;;;;;22.81;71.61;101198.31;10573081;27;20043;-80
2023/12/24 12:55:07;;;;;;;11.95;2.90;;;;;;;22.60;79.11;101202.44;10590126;27;20125;-80
2023/12/24 13:00:30;;;;;;;14.18;3.33;;;;;;;22.38;84.08;101205.75;10604020;27;20104;-79
2023/12/24 13:05:54;;;;;;;13.20;2.85;;;;;;;22.12;89.87;101214.47;10591116;27;20585;-81
2023/12/24 13:11:20;;;;;;;13.05;3.05;;;;;;;21.91;93.50;101225.69;10595119;27;20043;-79
2023/12/24 13:16:43;;;;;;;18.98;3.22;;;;;;;21.79;98.51;101218.81;10603971;27;20043;-79
2023/12/24 13:22:06;;;;;;;17.00;2.95;;;;;;;21.43;100.00;101225.88;10593365;27;20047;-81
2023/12/24 13:27:30;;;;;;;15.13;3.00;;;;;;;21.14;100.00;101242.56;10574708;27;20437;-80
2023/12/24 13:32:53;;;;;;;19.25;2.90;;;;;;;21.07;100.00;101257.91;10597898;27;20051;-80
2023/12/24 13:38:18;;;;;;;16.73;3.67;;;;;;;21.09;100.00;101266.81;10573272;27;20122;-79
2023/12/24 13:43:42;;;;;;;14.75;3.55;;;;;;;21.04;100.00;101270.53;10588880;27;20059;-80
2023/12/24 13:49:07;;;;;;;17.23;3.63;;;;;;;21.17;100.00;101284.63;10617859;27;20058;-78
2023/12/24 13:54:30;;;;;;;16.58;3.50;;;;;;;21.20;100.00;101288.13;10630389;27;20061;-79
2023/12/24 13:59:53;;;;;;;23.92;4.40;;;;;;;21.15;100.00;101289.09;10608461;27;20495;-80
2023/12/24 14:05:16;;;;;;;24.63;4.85;;;;;;;20.91;100.00;101306.56;10621951;27;20045;-80
2023/12/24 14:10:39;;;;;;;14.98;3.35;;;;;;;20.50;100.00;101305.47;10617217;27;20050;-81
2023/12/24 14:16:06;;;;;;;16.08;3.17;;;;;;;20.22;100.00;101298.72;10630050;27;20042;-82
2023/12/24 14:21:31;;;;;;;20.77;2.95;;;;;;;19.97;100.00;101321.47;10607714;27;20082;-81
2023/12/24 14:26:54;;;;;;;15.02;2.60;;;;;;;19.74;100.00;101303.91;10626119;27;20284;-80
2023/12/24 14:32:18;;;;;;;21.70;4.07;;;;;;;19.54;100.00;101311.31;10575270;27;20046;-81
2023/12/24 14:37:41;;;;;;;21.30;3.50;;;;;;;19.34;100.00;101300.81;10609383;27;20091;-80
2023/12/24 14:43:05;;;;;;;20.50;3.78;;;;;;;19.08;100.00;101313.59;10595369;27;20134;-80
2023/12/24 14:48:35;;;;;;;20.45;3.55;;;;;;;18.91;100.00;101335.16;10624846;27;20070;-83
2023/12/24 14:53:58;;;;;;;24.77;7.40;;;;;;;18.83;100.00;101336.16;10584221;27;20054;-83
2023/12/24 14:59:20;;;;;;;22.20;6.32;;;;;;;18.63;100.00;101339.88;10617685;27;20452;-82
2023/12/24 15:04:46;;;;;;;24.40;6.93;;;;;;;18.58;100.00;101362.19;10617871;27;20047;-79
2023/12/24 15:10:09;;;;;;;22.27;6.57;;;;;;;18.49;100.00;101357.78;10652148;27;20070;-82
2023/12/24 15:15:31;;;;;;;24.05;7.88;;;;;;;18.31;100.00;101369.47;10623690;27;20055;-82
2023/12/24 15:20:55;;;;;;;32.20;14.75;;;;;;;18.04;100.00;101368.78;10645379;27;20051;-84
2023/12/24 15:26:19;;;;;;;34.22;7.85;;;;;;;17.84;100.00;101383.13;10623524;27;20049;-87
2023/12/24 15:31:41;;;;;;;22.73;6.15;;;;;;;17.60;100.00;101388.50;10611662;27;20092;-88
2023/12/24 15:37:05;;;;;;;23.08;7.68;;;;;;;17.55;100.00;101398.31;10626622;27;20054;-86
2023/12/24 15:42:30;;;;;;;26.92;12.05;;;;;;;17.36;100.00;101393.91;10606201;27;20040;-92
2023/12/24 15:47:54;;;;;;;26.30;13.48;;;;;;;17.30;100.00;101405.47;10584442;27;20039;-92
2023/12/24 15:53:18;;;;;;;31.08;15.80;;;;;;;17.23;100.00;101426.84;10591329;27;20055;-84
2023/12/24 15:58:40;;;;;;;69.20;20.67;;;;;;;17.02;100.00;101428.63;10605798;27;20047;-85
2023/12/24 16:04:03;;;;;;;18.50;5.00;;;;;;;17.07;100.00;101434.84;10602677;27;20035;-84
2023/12/24 16:09:28;;;;;;;19.15;5.22;;;;;;;17.08;100.00;101438.41;10601069;27;20040;-83
2023/12/24 16:14:51;;;;;;;26.58;6.25;;;;;;;17.08;100.00;101451.75;10590335;27;20051;-82
2023/12/24 16:20:14;;;;;;;23.50;5.07;;;;;;;17.01;100.00;101447.28;10602446;27;20522;-79
2023/12/24 16:25:38;;;;;;;17.30;4.95;;;;;;;16.96;100.00;101454.41;10589094;27;20050;-84
2023/12/24 16:31:01;;;;;;;20.77;6.07;;;;;;;16.93;100.00;101467.75;10604008;27;20047;-83
2023/12/24 16:36:24;;;;;;;17.52;4.97;;;;;;;16.71;100.00;101473.06;10588634;27;20131;-83
2023/12/24 16:41:48;;;;;;;19.63;8.18;;;;;;;16.76;100.00;101469.50;10608987;27;20134;-83
2023/12/24 16:47:10;;;;;;;32.33;25.35;;;;;;;16.61;100.00;101478.34;10607960;27;20050;-82
2023/12/24 16:52:33;;;;;;;29.25;10.32;;;;;;;16.32;100.00;101488.91;10581534;27;20264;-84
2023/12/24 16:57:57;;;;;;;23.35;4.57;;;;;;;16.30;100.00;101483.56;10587002;27;20044;-84
2023/12/24 17:03:20;;;;;;;28.75;17.95;;;;;;;16.06;100.00;101493.22;10563374;28;20044;-86
2023/12/24 17:08:42;;;;;;;21.08;7.47;;;;;;;16.03;100.00;101498.53;10561205;27;20097;-84
2023/12/24 17:14:06;;;;;;;20.67;8.10;;;;;;;15.79;100.00;101486.88;10571882;28;20054;-84
2023/12/24 17:19:29;;;;;;;55.67;42.85;;;;;;;15.74;100.00;101501.94;10558786;28;20036;-84
2023/12/24 17:24:53;;;;;;;20.13;6.38;;;;;;;15.57;100.00;101511.56;10600232;27;20108;-83
2023/12/24 17:30:21;;;;;;;44.97;30.33;;;;;;;15.59;100.00;101508.91;10563845;27;20039;-83
2023/12/24 17:35:45;;;;;;;21.67;7.35;;;;;;;15.27;100.00;101524.59;10601168;27;20130;-83
2023/12/24 17:41:07;;;;;;;22.48;5.10;;;;;;;14.93;100.00;101520.72;10573559;27;20036;-81
2023/12/24 17:46:31;;;;;;;21.17;8.05;;;;;;;15.11;100.00;101535.09;10570806;28;20127;-81
2023/12/24 17:51:54;;;;;;;18.27;5.63;;;;;;;15.20;100.00;101546.69;10573161;28;20069;-78
2023/12/24 17:57:19;;;;;;;18.98;6.95;;;;;;;15.14;100.00;101544.88;10575073;28;20040;-86
2023/12/24 18:02:44;;;;;;;46.13;28.98;;;;;;;14.99;100.00;101555.34;10554315;28;20499;-85
2023/12/24 18:08:07;;;;;;;32.58;12.20;;;;;;;14.79;100.00;101573.75;10559529;28;20051;-85
2023/12/24 18:13:31;;;;;;;23.83;9.43;;;;;;;14.78;100.00;101550.69;10575583;28;20043;-87
2023/12/24 18:18:56;;;;;;;32.55;14.98;;;;;;;14.90;100.00;101556.13;10573638;28;20051;-88
2023/12/24 18:24:19;;;;;;;39.30;21.40;;;;;;;14.73;100.00;101565.72;10574384;28;20138;-88
2023/12/24 18:29:42;;;;;;;30.23;15.43;;;;;;;14.72;100.00;101559.50;10562154;28;20130;-78
2023/12/24 18:35:06;;;;;;;31.20;15.80;;;;;;;14.70;100.00;101574.53;10563696;28;20060;-79
2023/12/24 18:40:29;;;;;;;45.45;29.70;;;;;;;14.57;100.00;101574.38;10565081;28;20047;-82
2023/12/24 18:45:51;;;;;;;33.60;14.73;;;;;;;14.68;100.00;101572.75;10551391;28;20523;-79
2023/12/24 18:51:18;;;;;;;33.88;18.30;;;;;;;14.71;100.00;101567.44;10590374;27;20047;-86
2023/12/24 18:56:41;;;;;;;26.58;12.88;;;;;;;14.53;100.00;101573.44;10591536;27;20137;-83
2023/12/24 19:02:04;;;;;;;20.25;8.35;;;;;;;14.38;100.00;101569.69;10594083;27;20050;-85
2023/12/24 19:07:28;;;;;;;52.45;36.10;;;;;;;14.28;100.00;101577.53;10607689;27;20051;-86
2023/12/24 19:12:52;;;;;;;27.67;13.43;;;;;;;14.31;100.00;101587.28;10604035;27;20043;-87
2023/12/24 19:18:14;;;;;;;34.05;11.45;;;;;;;14.23;100.00;101588.94;10612239;27;20049;-86
2023/12/24 19:23:39;;;;;;;42.25;19.20;;;;;;;14.30;100.00;101572.22;10642802;27;20054;-87
2023/12/24 19:29:02;;;;;;;21.90;11.13;;;;;;;14.19;100.00;101587.09;10589377;27;20491;-85
2023/12/24 19:34:25;;;;;;;20.67;7.22;;;;;;;14.34;100.00;101584.66;10568944;27;20555;-85
2023/12/24 19:39:49;;;;;;;19.90;7.75;;;;;;;14.48;100.00;101583.13;10615632;27;20043;-87
2023/12/24 19:45:11;;;;;;;27.90;10.32;;;;;;;14.43;100.00;101582.19;10616171;27;20420;-85
2023/12/24 19:50:34;;;;;;;29.15;11.43;;;;;;;14.11;100.00;101584.34;10634974;27;20517;-85
2023/12/24 19:55:59;;;;;;;33.97;15.02;;;;;;;13.81;100.00;101598.06;10591775;27;20382;-86
2023/12/24 20:01:22;;;;;;;17.85;9.20;;;;;;;13.63;100.00;101596.88;10624233;27;20043;-84
2023/12/24 20:06:44;;;;;;;22.92;6.90;;;;;;;13.52;100.00;101599.34;10630737;27;20047;-84
2023/12/24 20:12:09;;;;;;;25.08;12.05;;;;;;;13.63;100.00;101597.75;10587391;27;20128;-79
2023/12/24 20:17:32;;;;;;;23.17;9.10;;;;;;;13.64;100.00;101601.31;10593337;27;20174;-81
2023/12/24 20:22:58;;;;;;;21.65;9.13;;;;;;;13.48;100.00;101601.06;10621806;27;20130;-84
2023/12/24 20:28:22;;;;;;;20.25;8.40;;;;;;;13.34;100.00;101602.56;10588006;27;20142;-79
2023/12/24 20:33:44;;;;;;;32.13;12.75;;;;;;;13.27;100.00;101605.06;10589477;27;20058;-84
2023/12/24 20:39:09;;;;;;;68.72;45.90;;;;;;;13.25;100.00;101615.69;10576491;27;20047;-83
2023/12/24 20:44:33;;;;;;;26.05;11.55;;;;;;;13.09;100.00;101621.50;10593940;27;20047;-80
2023/12/24 20:49:55;;;;;;;22.65;6.60;;;;;;;12.99;100.00;101622.22;10601354;27;20051;-76
2023/12/24 20:55:17;;;;;;;18.02;7.10;;;;;;;12.94;100.00;101610.59;10598346;27;20054;-83
2023/12/24 21:00:41;;;;;;;17.17;6.25;;;;;;;12.81;100.00;101616.50;10605112;27;20045;-84
2023/12/24 21:06:04;;;;;;;36.67;18.25;;;;;;;12.73;100.00;101621.69;10627244;27;20071;-85
2023/12/24 21:11:27;;;;;;;43.28;17.83;;;;;;;12.90;100.00;101624.66;10608540;27;20131;-84
2023/12/24 21:16:51;;;;;;;22.75;9.90;;;;;;;12.75;100.00;101617.28;10624421;27;20038;-81
2023/12/24 21:22:13;;;;;;;10.65;3.28;;;;;;;12.76;100.00;101617.34;10605986;27;20448;-81
2023/12/24 21:27:36;;;;;;;11.50;5.30;;;;;;;12.67;100.00;101622.44;10570710;27;20225;-81
2023/12/24 21:33:00;;;;;;;22.50;6.43;;;;;;;12.67;100.00;101616.22;10594041;27;20466;-84
2023/12/24 21:38:22;;;;;;;18.55;5.95;;;;;;;12.50;100.00;101610.59;10607223;27;20554;-86
2023/12/24 21:43:44;;;;;;;78.80;29.85;;;;;;;12.53;100.00;101615.97;10603457;27;20051;-85
2023/12/24 21:49:08;;;;;;;49.30;21.15;;;;;;;12.58;100.00;101627.56;10619567;27;20050;-86
2023/12/24 21:54:32;;;;;;;46.38;16.58;;;;;;;12.63;100.00;101617.03;10606877;27;20047;-85
2023/12/24 21:59:54;;;;;;;34.90;11.77;;;;;;;12.62;100.00;101605.56;10603787;28;20046;-82
2023/12/24 22:05:19;;;;;;;23.85;10.88;;;;;;;12.59;100.00;101613.44;10602602;28;20055;-87
2023/12/24 22:10:43;;;;;;;18.70;11.40;;;;;;;12.92;100.00;101623.84;10603498;27;20088;-84
2023/12/24 22:16:12;;;;;;;27.10;18.20;;;;;;;12.97;100.00;101627.47;10602982;28;20146;-84
2023/12/24 22:21:48;;;;;;;26.48;15.90;;;;;;;12.91;100.00;101627.34;10634262;27;20057;-83
2023/12/24 22:27:10;;;;;;;47.95;24.83;;;;;;;12.71;100.00;101632.25;10625948;27;20039;-83
2023/12/24 22:32:33;;;;;;;26.10;15.25;;;;;;;12.52;100.00;101635.38;10610207;27;20146;-83
2023/12/24 22:37:57;;;;;;;44.97;25.60;;;;;;;12.53;100.00;101629.22;10582368;27;20051;-83
2023/12/24 22:43:20;;;;;;;35.55;17.13;;;;;;;12.41;100.00;101625.38;10582200;28;20044;-86
2023/12/24 22:48:42;;;;;;;37.47;23.67;;;;;;;12.38;100.00;101615.63;10559448;27;20103;-86
2023/12/24 22:54:06;;;;;;;39.90;29.25;;;;;;;12.31;100.00;101621.66;10596331;27;20099;-84
2023/12/24 22:59:29;;;;;;;33.38;22.00;;;;;;;12.27;100.00;101617.16;10596769;27;20403;-84
2023/12/24 23:04:51;;;;;;;27.20;17.13;;;;;;;12.31;100.00;101613.72;10604745;27;20042;-84
2023/12/24 23:10:15;;;;;;;25.63;14.52;;;;;;;12.26;100.00;101618.00;10636876;27;20046;-84
2023/12/24 23:15:37;;;;;;;20.52;6.38;;;;;;;12.22;100.00;101611.75;10604373;27;20051;-83
2023/12/24 23:21:00;;;;;;;15.65;6.25;;;;;;;12.22;100.00;101621.44;10620794;27;20047;-84
2023/12/24 23:26:24;;;;;;;9.82;4.85;;;;;;;12.19;100.00;101616.97;10629082;27;20078;-83
2023/12/24 23:31:46;;;;;;;13.13;6.88;;;;;;;12.20;100.00;101621.41;10608480;27;20051;-84
2023/12/24 23:37:08;;;;;;;17.25;7.53;;;;;;;12.37;100.00;101624.44;10626644;27;20047;-84
2023/12/24 23:42:34;;;;;;;29.17;13.95;;;;;;;12.20;100.00;101613.47;10639426;27;20050;-84
2023/12/24 23:47:57;;;;;;;31.08;20.63;;;;;;;12.18;100.00;101616.94;10623777;27;20503;-82
2023/12/24 23:53:19;;;;;;;30.77;18.52;;;;;;;12.07;100.00;101619.34;10604629;27;20110;-83
2023/12/24 23:58:44;;;;;;;21.00;6.43;;;;;;;12.09;100.00;101617.63;10607904;27;20567;-84
